EWG593 LEPA-EDDK
Flight info
| Callsign | EWG593 |
|---|---|
| Flight time | 1h 53m |
| Altitude | 38000 |
| Route | MEROS N853 LUMAS DCT MAXIR DCT LUSOL DCT BODRU DCT OKTET DCT IRMAR DCT KINES DCT VANAS DCT MOBLO DCT UBIMA DCT GILIR DCT PENDU DCT IXILU DCT EPL DCT JARNY DCT ROUSY M624 DIK N853 ARCKY T853 IBESA T860 ERUKI ERUKI1B |
| Aircraft | A320/M-SDE3FGHIRWY/LB1 |
Departure
| Time | 2026-05-04 19:21 |
|---|---|
| Airport | Palma de Mallorca Airport (LEPA) |
Arrival
| Time | 2026-05-04 21:14 |
|---|---|
| Airport | Cologne Bonn Airport (EDDK) |
| Time | Latitude | Longitude | Altitude | Speed | Heading |
|---|---|---|---|---|---|
| 2026-05-04 18:37 | 39.55051 | 2.73684 | 39 ft | 0 kts | 239° |
| 2026-05-04 19:11 | 39.55054 | 2.73691 | 38 ft | 4 kts | 239° |
| 2026-05-04 19:11 | 39.55068 | 2.73721 | 38 ft | 4 kts | 239° |
| 2026-05-04 19:11 | 39.55081 | 2.73751 | 37 ft | 4 kts | 243° |
| 2026-05-04 19:12 | 39.55089 | 2.73783 | 38 ft | 4 kts | 275° |
| 2026-05-04 19:12 | 39.55065 | 2.73831 | 38 ft | 4 kts | 329° |
| 2026-05-04 19:12 | 39.55042 | 2.73848 | 38 ft | 4 kts | 329° |
| 2026-05-04 19:13 | 39.55035 | 2.73853 | 38 ft | 0 kts | 329° |
| 2026-05-04 19:16 | 39.55061 | 2.73833 | 37 ft | 10 kts | 329° |
| 2026-05-04 19:16 | 39.55136 | 2.73776 | 37 ft | 10 kts | 337° |
| 2026-05-04 19:16 | 39.55183 | 2.73818 | 36 ft | 8 kts | 49° |
| 2026-05-04 19:16 | 39.55247 | 2.73795 | 37 ft | 14 kts | 329° |
| 2026-05-04 19:17 | 39.55347 | 2.73717 | 36 ft | 20 kts | 328° |
| 2026-05-04 19:17 | 39.55470 | 2.73618 | 38 ft | 21 kts | 328° |
| 2026-05-04 19:17 | 39.55592 | 2.73523 | 36 ft | 17 kts | 329° |
| 2026-05-04 19:17 | 39.55682 | 2.73558 | 38 ft | 15 kts | 57° |
| 2026-05-04 19:18 | 39.55731 | 2.73664 | 36 ft | 14 kts | 59° |
| 2026-05-04 19:18 | 39.55791 | 2.73791 | 37 ft | 20 kts | 58° |
| 2026-05-04 19:18 | 39.55865 | 2.73947 | 36 ft | 21 kts | 58° |
| 2026-05-04 19:18 | 39.55943 | 2.74110 | 38 ft | 22 kts | 59° |
| 2026-05-04 19:19 | 39.55996 | 2.74226 | 38 ft | 23 kts | 58° |
| 2026-05-04 19:19 | 39.56079 | 2.74399 | 38 ft | 17 kts | 58° |
| 2026-05-04 19:19 | 39.56163 | 2.74446 | 38 ft | 13 kts | 339° |
| 2026-05-04 19:19 | 39.56239 | 2.74384 | 36 ft | 12 kts | 312° |
| 2026-05-04 19:20 | 39.56238 | 2.74288 | 37 ft | 13 kts | 240° |
| 2026-05-04 19:20 | 39.56110 | 2.74016 | 38 ft | 69 kts | 238° |
| 2026-05-04 19:20 | 39.55744 | 2.73246 | 38 ft | 128 kts | 238° |
| 2026-05-04 19:20 | 39.55195 | 2.72085 | 103 ft | 167 kts | 238° |
| 2026-05-04 19:21 | 39.54599 | 2.70799 | 756 ft | 167 kts | 239° |
| 2026-05-04 19:21 | 39.54000 | 2.69492 | 1412 ft | 171 kts | 238° |
| 2026-05-04 19:21 | 39.53372 | 2.68142 | 1943 ft | 182 kts | 238° |
| 2026-05-04 19:21 | 39.52694 | 2.66670 | 2321 ft | 200 kts | 238° |
| 2026-05-04 19:22 | 39.51933 | 2.65080 | 2855 ft | 212 kts | 237° |
| 2026-05-04 19:22 | 39.51150 | 2.63456 | 3683 ft | 213 kts | 237° |
| 2026-05-04 19:22 | 39.50349 | 2.61803 | 4533 ft | 214 kts | 236° |
| 2026-05-04 19:22 | 39.49271 | 2.60389 | 5037 ft | 234 kts | 211° |
| 2026-05-04 19:23 | 39.47632 | 2.59834 | 5482 ft | 259 kts | 179° |
| 2026-05-04 19:23 | 39.45918 | 2.60653 | 6226 ft | 275 kts | 145° |
| 2026-05-04 19:23 | 39.44777 | 2.62689 | 7020 ft | 291 kts | 112° |
| 2026-05-04 19:23 | 39.44628 | 2.65329 | 7782 ft | 304 kts | 79° |
| 2026-05-04 19:24 | 39.45508 | 2.67837 | 8540 ft | 311 kts | 53° |
| 2026-05-04 19:24 | 39.46873 | 2.70032 | 9325 ft | 315 kts | 49° |
| 2026-05-04 19:24 | 39.48279 | 2.72241 | 10076 ft | 321 kts | 49° |
| 2026-05-04 19:24 | 39.49738 | 2.74527 | 10458 ft | 341 kts | 49° |
| 2026-05-04 19:25 | 39.51298 | 2.76970 | 10724 ft | 362 kts | 49° |
| 2026-05-04 19:25 | 39.52925 | 2.79526 | 11311 ft | 372 kts | 50° |
| 2026-05-04 19:25 | 39.54574 | 2.82128 | 11983 ft | 377 kts | 50° |
| 2026-05-04 19:25 | 39.56249 | 2.84775 | 12660 ft | 382 kts | 50° |
| 2026-05-04 19:26 | 39.57939 | 2.87451 | 13343 ft | 386 kts | 50° |
| 2026-05-04 19:26 | 39.59648 | 2.90155 | 14020 ft | 389 kts | 49° |
| 2026-05-04 19:26 | 39.61370 | 2.92884 | 14659 ft | 393 kts | 49° |
| 2026-05-04 19:26 | 39.63106 | 2.95636 | 15300 ft | 396 kts | 49° |
| 2026-05-04 19:27 | 39.64857 | 2.98416 | 15931 ft | 399 kts | 49° |
| 2026-05-04 19:27 | 39.66618 | 3.01218 | 16562 ft | 402 kts | 49° |
| 2026-05-04 19:27 | 39.68414 | 3.04076 | 17182 ft | 405 kts | 49° |
| 2026-05-04 19:27 | 39.70201 | 3.06919 | 17753 ft | 408 kts | 49° |
| 2026-05-04 19:28 | 39.72002 | 3.09784 | 18305 ft | 411 kts | 49° |
| 2026-05-04 19:28 | 39.73817 | 3.12676 | 18812 ft | 415 kts | 49° |
| 2026-05-04 19:28 | 39.75649 | 3.15598 | 19313 ft | 419 kts | 49° |
| 2026-05-04 19:28 | 39.77499 | 3.18554 | 19802 ft | 424 kts | 49° |
| 2026-05-04 19:29 | 39.79364 | 3.21545 | 20283 ft | 427 kts | 49° |
| 2026-05-04 19:29 | 39.81246 | 3.24565 | 20732 ft | 432 kts | 49° |
| 2026-05-04 19:29 | 39.83145 | 3.27614 | 21163 ft | 436 kts | 49° |
| 2026-05-04 19:29 | 39.85066 | 3.30693 | 21590 ft | 441 kts | 49° |
| 2026-05-04 19:30 | 39.87010 | 3.33805 | 22021 ft | 444 kts | 49° |
| 2026-05-04 19:30 | 39.88966 | 3.36946 | 22441 ft | 449 kts | 50° |
| 2026-05-04 19:30 | 39.90935 | 3.40118 | 22848 ft | 453 kts | 50° |
| 2026-05-04 19:30 | 39.92903 | 3.43288 | 23232 ft | 457 kts | 50° |
| 2026-05-04 19:31 | 39.94911 | 3.46519 | 23609 ft | 461 kts | 50° |
| 2026-05-04 19:31 | 39.96936 | 3.49781 | 23968 ft | 465 kts | 50° |
| 2026-05-04 19:31 | 39.98977 | 3.53074 | 24307 ft | 469 kts | 50° |
| 2026-05-04 19:31 | 40.01033 | 3.56397 | 24710 ft | 472 kts | 50° |
| 2026-05-04 19:32 | 40.03093 | 3.59736 | 25115 ft | 474 kts | 50° |
| 2026-05-04 19:32 | 40.05167 | 3.63101 | 25487 ft | 477 kts | 50° |
| 2026-05-04 19:32 | 40.07251 | 3.66484 | 25834 ft | 480 kts | 50° |
| 2026-05-04 19:32 | 40.09349 | 3.69886 | 26178 ft | 483 kts | 50° |
| 2026-05-04 19:33 | 40.11459 | 3.73314 | 26524 ft | 485 kts | 50° |
| 2026-05-04 19:33 | 40.13607 | 3.76806 | 26873 ft | 488 kts | 51° |
| 2026-05-04 19:33 | 40.15738 | 3.80272 | 27178 ft | 491 kts | 51° |
| 2026-05-04 19:33 | 40.17881 | 3.83761 | 27510 ft | 493 kts | 51° |
| 2026-05-04 19:34 | 40.20031 | 3.87277 | 27824 ft | 496 kts | 51° |
| 2026-05-04 19:34 | 40.22188 | 3.90813 | 28139 ft | 498 kts | 51° |
| 2026-05-04 19:34 | 40.24355 | 3.94364 | 28453 ft | 501 kts | 51° |
| 2026-05-04 19:34 | 40.26535 | 3.97934 | 28762 ft | 503 kts | 51° |
| 2026-05-04 19:35 | 40.28724 | 4.01523 | 29048 ft | 505 kts | 51° |
| 2026-05-04 19:35 | 40.30920 | 4.05129 | 29345 ft | 508 kts | 51° |
| 2026-05-04 19:35 | 40.33124 | 4.08754 | 29617 ft | 510 kts | 51° |
| 2026-05-04 19:35 | 40.35338 | 4.12400 | 29890 ft | 512 kts | 51° |
| 2026-05-04 19:36 | 40.37560 | 4.16058 | 30166 ft | 514 kts | 51° |
| 2026-05-04 19:36 | 40.39790 | 4.19734 | 30428 ft | 515 kts | 51° |
| 2026-05-04 19:36 | 40.42024 | 4.23421 | 30678 ft | 517 kts | 51° |
| 2026-05-04 19:36 | 40.44263 | 4.27123 | 30927 ft | 519 kts | 51° |
| 2026-05-04 19:37 | 40.46701 | 4.30613 | 31175 ft | 519 kts | 41° |
| 2026-05-04 19:37 | 40.49492 | 4.33588 | 31499 ft | 515 kts | 31° |
| 2026-05-04 19:37 | 40.52556 | 4.35979 | 31849 ft | 510 kts | 22° |
| 2026-05-04 19:37 | 40.55809 | 4.37739 | 32184 ft | 503 kts | 13° |
| 2026-05-04 19:38 | 40.59170 | 4.38858 | 32538 ft | 495 kts | 4° |
| 2026-05-04 19:38 | 40.62554 | 4.39661 | 32869 ft | 494 kts | 4° |
| 2026-05-04 19:38 | 40.65931 | 4.40468 | 33219 ft | 492 kts | 4° |
| 2026-05-04 19:38 | 40.69295 | 4.41276 | 33550 ft | 491 kts | 4° |
| 2026-05-04 19:39 | 40.72655 | 4.42081 | 33868 ft | 490 kts | 4° |
| 2026-05-04 19:39 | 40.76003 | 4.42884 | 34183 ft | 489 kts | 4° |
| 2026-05-04 19:39 | 40.79350 | 4.43691 | 34486 ft | 488 kts | 4° |
| 2026-05-04 19:39 | 40.82686 | 4.44497 | 34791 ft | 487 kts | 4° |
| 2026-05-04 19:40 | 40.86017 | 4.45299 | 35061 ft | 486 kts | 4° |
| 2026-05-04 19:40 | 40.89389 | 4.46108 | 35341 ft | 485 kts | 4° |
| 2026-05-04 19:40 | 40.92711 | 4.46909 | 35594 ft | 485 kts | 4° |
| 2026-05-04 19:40 | 40.96024 | 4.47709 | 35859 ft | 484 kts | 4° |
| 2026-05-04 19:41 | 40.99330 | 4.48511 | 36105 ft | 483 kts | 4° |
| 2026-05-04 19:41 | 41.02635 | 4.49316 | 36328 ft | 483 kts | 4° |
| 2026-05-04 19:41 | 41.05940 | 4.50123 | 36511 ft | 483 kts | 4° |
| 2026-05-04 19:41 | 41.09244 | 4.50929 | 36726 ft | 482 kts | 4° |
| 2026-05-04 19:42 | 41.12533 | 4.51731 | 37027 ft | 479 kts | 4° |
| 2026-05-04 19:42 | 41.15801 | 4.52528 | 37354 ft | 475 kts | 4° |
| 2026-05-04 19:42 | 41.19050 | 4.53319 | 37584 ft | 474 kts | 4° |
| 2026-05-04 19:42 | 41.22290 | 4.54108 | 37773 ft | 473 kts | 4° |
| 2026-05-04 19:43 | 41.25529 | 4.54896 | 37924 ft | 474 kts | 4° |
| 2026-05-04 19:43 | 41.32032 | 4.56478 | 37956 ft | 478 kts | 4° |
| 2026-05-04 19:44 | 41.38623 | 4.58083 | 37965 ft | 484 kts | 4° |
| 2026-05-04 19:44 | 41.45251 | 4.59719 | 37963 ft | 485 kts | 4° |
| 2026-05-04 19:45 | 41.51885 | 4.61370 | 37963 ft | 485 kts | 4° |
| 2026-05-04 19:45 | 41.58532 | 4.63012 | 37964 ft | 486 kts | 4° |
| 2026-05-04 19:46 | 41.65181 | 4.64648 | 37965 ft | 486 kts | 4° |
| 2026-05-04 19:46 | 41.71821 | 4.66487 | 37963 ft | 492 kts | 12° |
| 2026-05-04 19:47 | 41.78067 | 4.70455 | 37961 ft | 502 kts | 27° |
| 2026-05-04 19:47 | 41.84088 | 4.75320 | 37965 ft | 502 kts | 27° |
| 2026-05-04 19:48 | 41.90085 | 4.80142 | 37972 ft | 502 kts | 27° |
| 2026-05-04 19:48 | 41.95109 | 4.84182 | 37978 ft | 503 kts | 27° |
| 2026-05-04 19:49 | 42.01104 | 4.89018 | 37963 ft | 502 kts | 27° |
| 2026-05-04 19:49 | 42.07096 | 4.93870 | 37979 ft | 503 kts | 27° |
| 2026-05-04 19:50 | 42.13079 | 4.98740 | 37980 ft | 502 kts | 27° |
| 2026-05-04 19:50 | 42.19056 | 5.03612 | 37986 ft | 502 kts | 27° |
| 2026-05-04 19:51 | 42.25033 | 5.08474 | 37992 ft | 502 kts | 27° |
| 2026-05-04 19:51 | 42.31003 | 5.13346 | 37995 ft | 501 kts | 27° |
| 2026-05-04 19:52 | 42.36995 | 5.18270 | 37997 ft | 500 kts | 27° |
| 2026-05-04 19:52 | 42.42938 | 5.23157 | 37998 ft | 499 kts | 27° |
| 2026-05-04 19:53 | 42.48870 | 5.28031 | 38006 ft | 498 kts | 27° |
| 2026-05-04 19:53 | 42.54788 | 5.32913 | 38016 ft | 498 kts | 27° |
| 2026-05-04 19:54 | 42.60703 | 5.37804 | 38022 ft | 497 kts | 27° |
| 2026-05-04 19:54 | 42.66610 | 5.42693 | 38019 ft | 497 kts | 27° |
| 2026-05-04 19:55 | 42.72510 | 5.47595 | 38025 ft | 496 kts | 27° |
| 2026-05-04 19:55 | 42.78398 | 5.52487 | 38029 ft | 496 kts | 27° |
| 2026-05-04 19:56 | 42.84271 | 5.57379 | 38023 ft | 496 kts | 27° |
| 2026-05-04 19:56 | 42.90155 | 5.62304 | 38027 ft | 495 kts | 28° |
| 2026-05-04 19:57 | 42.96023 | 5.67234 | 38025 ft | 495 kts | 28° |
| 2026-05-04 19:57 | 43.01882 | 5.72155 | 38028 ft | 495 kts | 28° |
| 2026-05-04 19:58 | 43.07741 | 5.77077 | 38033 ft | 494 kts | 28° |
| 2026-05-04 19:58 | 43.13640 | 5.82045 | 38035 ft | 494 kts | 28° |
| 2026-05-04 19:59 | 43.19489 | 5.86991 | 38040 ft | 494 kts | 28° |
| 2026-05-04 19:59 | 43.25334 | 5.91949 | 38043 ft | 494 kts | 28° |
| 2026-05-04 20:00 | 43.31170 | 5.96909 | 38045 ft | 493 kts | 28° |
| 2026-05-04 20:00 | 43.37049 | 6.01746 | 38049 ft | 491 kts | 25° |
| 2026-05-04 20:01 | 43.43199 | 6.05669 | 38049 ft | 484 kts | 15° |
| 2026-05-04 20:01 | 43.49549 | 6.08638 | 38048 ft | 482 kts | 13° |
| 2026-05-04 20:02 | 43.55906 | 6.11606 | 38047 ft | 483 kts | 15° |
| 2026-05-04 20:02 | 43.62191 | 6.14890 | 38037 ft | 483 kts | 17° |
| 2026-05-04 20:03 | 43.68361 | 6.18255 | 38038 ft | 483 kts | 17° |
| 2026-05-04 20:03 | 43.74693 | 6.21665 | 38037 ft | 482 kts | 16° |
| 2026-05-04 20:04 | 43.81001 | 6.24993 | 38033 ft | 482 kts | 16° |
| 2026-05-04 20:04 | 43.87272 | 6.28303 | 38035 ft | 482 kts | 16° |
| 2026-05-04 20:05 | 43.93539 | 6.31639 | 38039 ft | 482 kts | 17° |
| 2026-05-04 20:05 | 43.99800 | 6.34998 | 38045 ft | 483 kts | 17° |
| 2026-05-04 20:06 | 44.06062 | 6.38362 | 38045 ft | 482 kts | 17° |
| 2026-05-04 20:06 | 44.12325 | 6.41730 | 38060 ft | 483 kts | 17° |
| 2026-05-04 20:07 | 44.18592 | 6.45101 | 38068 ft | 483 kts | 17° |
| 2026-05-04 20:07 | 44.24852 | 6.48472 | 38069 ft | 483 kts | 17° |
| 2026-05-04 20:08 | 44.30971 | 6.51775 | 38078 ft | 482 kts | 17° |
| 2026-05-04 20:08 | 44.37227 | 6.55168 | 38079 ft | 482 kts | 17° |
| 2026-05-04 20:09 | 44.43028 | 6.58337 | 38089 ft | 482 kts | 17° |
| 2026-05-04 20:09 | 44.49274 | 6.61735 | 38092 ft | 482 kts | 17° |
| 2026-05-04 20:10 | 44.55509 | 6.65197 | 38102 ft | 482 kts | 18° |
| 2026-05-04 20:10 | 44.61716 | 6.68708 | 38108 ft | 481 kts | 18° |
| 2026-05-04 20:11 | 44.67918 | 6.72217 | 38112 ft | 480 kts | 18° |
| 2026-05-04 20:11 | 44.74113 | 6.75720 | 38109 ft | 480 kts | 18° |
| 2026-05-04 20:12 | 44.80427 | 6.78403 | 38107 ft | 469 kts | 2° |
| 2026-05-04 20:12 | 44.86863 | 6.78577 | 38101 ft | 460 kts | 351° |
| 2026-05-04 20:13 | 44.93267 | 6.78152 | 38100 ft | 461 kts | 352° |
| 2026-05-04 20:13 | 44.99685 | 6.77738 | 38097 ft | 462 kts | 352° |
| 2026-05-04 20:14 | 45.06106 | 6.77323 | 38100 ft | 462 kts | 352° |
| 2026-05-04 20:14 | 45.12445 | 6.76912 | 38105 ft | 462 kts | 352° |
| 2026-05-04 20:15 | 45.18910 | 6.76482 | 38102 ft | 462 kts | 352° |
| 2026-05-04 20:15 | 45.25330 | 6.76050 | 38104 ft | 462 kts | 352° |
| 2026-05-04 20:16 | 45.31753 | 6.75609 | 38107 ft | 462 kts | 352° |
| 2026-05-04 20:16 | 45.38180 | 6.75186 | 38110 ft | 462 kts | 352° |
| 2026-05-04 20:17 | 45.44607 | 6.74761 | 38106 ft | 462 kts | 352° |
| 2026-05-04 20:17 | 45.51029 | 6.74330 | 38106 ft | 462 kts | 352° |
| 2026-05-04 20:18 | 45.57446 | 6.73883 | 38100 ft | 461 kts | 352° |
| 2026-05-04 20:18 | 45.63863 | 6.73443 | 38099 ft | 462 kts | 352° |
| 2026-05-04 20:19 | 45.70274 | 6.73011 | 38093 ft | 461 kts | 352° |
| 2026-05-04 20:19 | 45.75609 | 6.72639 | 38083 ft | 462 kts | 352° |
| 2026-05-04 20:20 | 45.82076 | 6.72192 | 38075 ft | 462 kts | 352° |
| 2026-05-04 20:20 | 45.88492 | 6.71759 | 38071 ft | 462 kts | 352° |
| 2026-05-04 20:21 | 45.94919 | 6.71327 | 38071 ft | 462 kts | 352° |
| 2026-05-04 20:21 | 46.04555 | 6.70670 | 38065 ft | 462 kts | 352° |
| 2026-05-04 20:22 | 46.10988 | 6.70174 | 38064 ft | 460 kts | 348° |
| 2026-05-04 20:22 | 46.17103 | 6.67972 | 38060 ft | 451 kts | 336° |
| 2026-05-04 20:23 | 46.23052 | 6.65068 | 38048 ft | 451 kts | 336° |
| 2026-05-04 20:23 | 46.29008 | 6.62156 | 38051 ft | 452 kts | 336° |
| 2026-05-04 20:24 | 46.34974 | 6.59252 | 38047 ft | 452 kts | 336° |
| 2026-05-04 20:24 | 46.40974 | 6.56329 | 38044 ft | 452 kts | 336° |
| 2026-05-04 20:25 | 46.46928 | 6.53415 | 38043 ft | 452 kts | 336° |
| 2026-05-04 20:25 | 46.52884 | 6.50490 | 38041 ft | 452 kts | 336° |
| 2026-05-04 20:26 | 46.58847 | 6.47559 | 38039 ft | 452 kts | 336° |
| 2026-05-04 20:26 | 46.64791 | 6.44622 | 38037 ft | 452 kts | 336° |
| 2026-05-04 20:27 | 46.70752 | 6.41664 | 38035 ft | 452 kts | 336° |
| 2026-05-04 20:27 | 46.76716 | 6.38700 | 38034 ft | 453 kts | 336° |
| 2026-05-04 20:28 | 46.82645 | 6.35750 | 38032 ft | 453 kts | 336° |
| 2026-05-04 20:28 | 46.88624 | 6.32786 | 38031 ft | 453 kts | 336° |
| 2026-05-04 20:29 | 46.94596 | 6.29814 | 38026 ft | 453 kts | 336° |
| 2026-05-04 20:29 | 47.00561 | 6.26825 | 38022 ft | 453 kts | 336° |
| 2026-05-04 20:30 | 47.06508 | 6.23759 | 38021 ft | 451 kts | 332° |
| 2026-05-04 20:30 | 47.12128 | 6.19742 | 38013 ft | 450 kts | 329° |
| 2026-05-04 20:31 | 47.17780 | 6.15663 | 38009 ft | 450 kts | 329° |
| 2026-05-04 20:31 | 47.23405 | 6.11618 | 38004 ft | 450 kts | 329° |
| 2026-05-04 20:32 | 47.29028 | 6.07545 | 37999 ft | 451 kts | 329° |
| 2026-05-04 20:32 | 47.34882 | 6.04101 | 37999 ft | 459 kts | 343° |
| 2026-05-04 20:33 | 47.38051 | 6.03410 | 37998 ft | 464 kts | 354° |
| 2026-05-04 20:33 | 47.41288 | 6.03402 | 37997 ft | 466 kts | 358° |
| 2026-05-04 20:33 | 47.47783 | 6.03568 | 38000 ft | 467 kts | 357° |
| 2026-05-04 20:34 | 47.54278 | 6.03693 | 38001 ft | 467 kts | 357° |
| 2026-05-04 20:34 | 47.60772 | 6.03826 | 37998 ft | 467 kts | 358° |
| 2026-05-04 20:35 | 47.67270 | 6.03972 | 38000 ft | 467 kts | 358° |
| 2026-05-04 20:35 | 47.73769 | 6.04114 | 37999 ft | 467 kts | 358° |
| 2026-05-04 20:36 | 47.80267 | 6.04301 | 38000 ft | 467 kts | 358° |
| 2026-05-04 20:36 | 47.86769 | 6.04535 | 38002 ft | 467 kts | 358° |
| 2026-05-04 20:37 | 47.93275 | 6.04757 | 38002 ft | 468 kts | 358° |
| 2026-05-04 20:37 | 47.99784 | 6.04948 | 38004 ft | 468 kts | 358° |
| 2026-05-04 20:38 | 48.06294 | 6.05140 | 38005 ft | 468 kts | 358° |
| 2026-05-04 20:38 | 48.12846 | 6.05341 | 38004 ft | 467 kts | 358° |
| 2026-05-04 20:39 | 48.19349 | 6.05549 | 38004 ft | 468 kts | 358° |
| 2026-05-04 20:39 | 48.25860 | 6.05759 | 38007 ft | 468 kts | 358° |
| 2026-05-04 20:40 | 48.32379 | 6.05958 | 38009 ft | 468 kts | 358° |
| 2026-05-04 20:40 | 48.38898 | 6.06226 | 38009 ft | 469 kts | 359° |
| 2026-05-04 20:41 | 48.45420 | 6.06559 | 38009 ft | 469 kts | 359° |
| 2026-05-04 20:41 | 48.51920 | 6.06882 | 38006 ft | 468 kts | 359° |
| 2026-05-04 20:42 | 48.58456 | 6.07181 | 38002 ft | 468 kts | 359° |
| 2026-05-04 20:42 | 48.64977 | 6.07469 | 38000 ft | 469 kts | 359° |
| 2026-05-04 20:43 | 48.71506 | 6.07761 | 37999 ft | 469 kts | 359° |
| 2026-05-04 20:43 | 48.78025 | 6.08070 | 37998 ft | 469 kts | 359° |
| 2026-05-04 20:44 | 48.84595 | 6.08395 | 38000 ft | 470 kts | 359° |
| 2026-05-04 20:44 | 48.91119 | 6.08695 | 38003 ft | 470 kts | 359° |
| 2026-05-04 20:45 | 48.97672 | 6.08987 | 38003 ft | 470 kts | 359° |
| 2026-05-04 20:45 | 49.04214 | 6.09291 | 38002 ft | 470 kts | 359° |
| 2026-05-04 20:46 | 49.10759 | 6.09601 | 37998 ft | 471 kts | 359° |
| 2026-05-04 20:46 | 49.17314 | 6.09922 | 37993 ft | 471 kts | 359° |
| 2026-05-04 20:47 | 49.23872 | 6.10242 | 37993 ft | 472 kts | 359° |
| 2026-05-04 20:47 | 49.30437 | 6.10577 | 37992 ft | 472 kts | 359° |
| 2026-05-04 20:48 | 49.37004 | 6.10924 | 37992 ft | 472 kts | 359° |
| 2026-05-04 20:48 | 49.43583 | 6.11283 | 37983 ft | 473 kts | 359° |
| 2026-05-04 20:49 | 49.49087 | 6.11582 | 37980 ft | 473 kts | 359° |
| 2026-05-04 20:49 | 49.55675 | 6.11845 | 37973 ft | 473 kts | 358° |
| 2026-05-04 20:50 | 49.62262 | 6.12056 | 37970 ft | 474 kts | 358° |
| 2026-05-04 20:50 | 49.65565 | 6.12171 | 37735 ft | 476 kts | 358° |
| 2026-05-04 20:50 | 49.68872 | 6.12293 | 37229 ft | 474 kts | 358° |
| 2026-05-04 20:51 | 49.72161 | 6.12418 | 36728 ft | 471 kts | 358° |
| 2026-05-04 20:51 | 49.75468 | 6.12546 | 36222 ft | 468 kts | 358° |
| 2026-05-04 20:51 | 49.78729 | 6.12676 | 35645 ft | 470 kts | 358° |
| 2026-05-04 20:51 | 49.82021 | 6.12809 | 35018 ft | 473 kts | 358° |
| 2026-05-04 20:52 | 49.85307 | 6.12938 | 34392 ft | 473 kts | 358° |
| 2026-05-04 20:52 | 49.88599 | 6.13048 | 33766 ft | 473 kts | 357° |
| 2026-05-04 20:52 | 49.91884 | 6.13097 | 33141 ft | 472 kts | 356° |
| 2026-05-04 20:52 | 49.95164 | 6.13102 | 32513 ft | 471 kts | 356° |
| 2026-05-04 20:53 | 49.98436 | 6.13088 | 31890 ft | 470 kts | 356° |
| 2026-05-04 20:53 | 50.01703 | 6.13075 | 31264 ft | 469 kts | 357° |
| 2026-05-04 20:53 | 50.04962 | 6.13075 | 30638 ft | 468 kts | 357° |
| 2026-05-04 20:53 | 50.08212 | 6.13088 | 30029 ft | 466 kts | 358° |
| 2026-05-04 20:54 | 50.11499 | 6.13109 | 29379 ft | 465 kts | 358° |
| 2026-05-04 20:54 | 50.14723 | 6.13135 | 28752 ft | 463 kts | 358° |
| 2026-05-04 20:54 | 50.17941 | 6.13160 | 28126 ft | 461 kts | 358° |
| 2026-05-04 20:54 | 50.21138 | 6.13183 | 27500 ft | 458 kts | 358° |
| 2026-05-04 20:55 | 50.24319 | 6.13204 | 26874 ft | 456 kts | 358° |
| 2026-05-04 20:55 | 50.27480 | 6.13600 | 26246 ft | 456 kts | 8° |
| 2026-05-04 20:55 | 50.30543 | 6.14841 | 25614 ft | 455 kts | 19° |
| 2026-05-04 20:55 | 50.33420 | 6.16871 | 24993 ft | 453 kts | 29° |
| 2026-05-04 20:56 | 50.36075 | 6.19502 | 24366 ft | 450 kts | 33° |
| 2026-05-04 20:56 | 50.38721 | 6.22222 | 23733 ft | 447 kts | 33° |
| 2026-05-04 20:56 | 50.41308 | 6.24895 | 23107 ft | 444 kts | 33° |
| 2026-05-04 20:56 | 50.43880 | 6.27554 | 22476 ft | 441 kts | 33° |
| 2026-05-04 20:57 | 50.46436 | 6.30192 | 21855 ft | 439 kts | 33° |
| 2026-05-04 20:57 | 50.48853 | 6.33082 | 21232 ft | 436 kts | 42° |
| 2026-05-04 20:57 | 50.50956 | 6.36489 | 20608 ft | 433 kts | 51° |
| 2026-05-04 20:57 | 50.52784 | 6.40228 | 19979 ft | 430 kts | 54° |
| 2026-05-04 20:58 | 50.54584 | 6.43965 | 19352 ft | 428 kts | 53° |
| 2026-05-04 20:58 | 50.56376 | 6.47684 | 18727 ft | 425 kts | 53° |
| 2026-05-04 20:58 | 50.58159 | 6.51384 | 18100 ft | 423 kts | 53° |
| 2026-05-04 20:58 | 50.59933 | 6.55064 | 17473 ft | 421 kts | 53° |
| 2026-05-04 20:59 | 50.61694 | 6.58720 | 16840 ft | 415 kts | 53° |
| 2026-05-04 20:59 | 50.63400 | 6.62269 | 16211 ft | 399 kts | 53° |
| 2026-05-04 20:59 | 50.65043 | 6.65697 | 15586 ft | 385 kts | 54° |
| 2026-05-04 20:59 | 50.66629 | 6.69015 | 14960 ft | 373 kts | 54° |
| 2026-05-04 21:00 | 50.68172 | 6.72253 | 14329 ft | 363 kts | 54° |
| 2026-05-04 21:00 | 50.69682 | 6.75420 | 13701 ft | 354 kts | 54° |
| 2026-05-04 21:00 | 50.71142 | 6.78486 | 13074 ft | 346 kts | 54° |
| 2026-05-04 21:00 | 50.72572 | 6.81496 | 12510 ft | 337 kts | 54° |
| 2026-05-04 21:01 | 50.73939 | 6.84373 | 12019 ft | 327 kts | 54° |
| 2026-05-04 21:01 | 50.75309 | 6.87251 | 11512 ft | 318 kts | 54° |
| 2026-05-04 21:01 | 50.76625 | 6.90018 | 11010 ft | 311 kts | 54° |
| 2026-05-04 21:01 | 50.77893 | 6.92694 | 10523 ft | 307 kts | 54° |
| 2026-05-04 21:02 | 50.79181 | 6.95421 | 10024 ft | 305 kts | 54° |
| 2026-05-04 21:02 | 50.80446 | 6.98096 | 9507 ft | 302 kts | 54° |
| 2026-05-04 21:02 | 50.81696 | 7.00736 | 9014 ft | 299 kts | 54° |
| 2026-05-04 21:02 | 50.82923 | 7.03332 | 8517 ft | 296 kts | 54° |
| 2026-05-04 21:03 | 50.84160 | 7.05954 | 8011 ft | 293 kts | 54° |
| 2026-05-04 21:03 | 50.85370 | 7.08523 | 7510 ft | 289 kts | 54° |
| 2026-05-04 21:03 | 50.86567 | 7.11067 | 7083 ft | 287 kts | 54° |
| 2026-05-04 21:03 | 50.87741 | 7.13566 | 6985 ft | 279 kts | 54° |
| 2026-05-04 21:04 | 50.88898 | 7.16022 | 6993 ft | 279 kts | 52° |
| 2026-05-04 21:04 | 50.90292 | 7.18200 | 6999 ft | 278 kts | 36° |
| 2026-05-04 21:04 | 50.91973 | 7.19693 | 7007 ft | 277 kts | 20° |
| 2026-05-04 21:04 | 50.93803 | 7.20452 | 6823 ft | 274 kts | 5° |
| 2026-05-04 21:05 | 50.95701 | 7.20429 | 6570 ft | 266 kts | 349° |
| 2026-05-04 21:05 | 50.97455 | 7.19691 | 6317 ft | 258 kts | 335° |
| 2026-05-04 21:05 | 50.99002 | 7.18350 | 6064 ft | 249 kts | 321° |
| 2026-05-04 21:05 | 51.00301 | 7.16570 | 5819 ft | 244 kts | 315° |
| 2026-05-04 21:06 | 51.01478 | 7.14853 | 5572 ft | 240 kts | 315° |
| 2026-05-04 21:06 | 51.02712 | 7.13065 | 5318 ft | 239 kts | 315° |
| 2026-05-04 21:06 | 51.03930 | 7.11287 | 5067 ft | 238 kts | 315° |
| 2026-05-04 21:06 | 51.05146 | 7.09503 | 4814 ft | 237 kts | 315° |
| 2026-05-04 21:07 | 51.06354 | 7.07736 | 4562 ft | 236 kts | 316° |
| 2026-05-04 21:07 | 51.07562 | 7.05975 | 4308 ft | 235 kts | 315° |
| 2026-05-04 21:07 | 51.08657 | 7.04074 | 4081 ft | 231 kts | 298° |
| 2026-05-04 21:07 | 51.09142 | 7.01694 | 3988 ft | 226 kts | 272° |
| 2026-05-04 21:08 | 51.08921 | 6.99286 | 3993 ft | 215 kts | 247° |
| 2026-05-04 21:08 | 51.08120 | 6.97372 | 3995 ft | 207 kts | 224° |
| 2026-05-04 21:08 | 51.07033 | 6.95805 | 3997 ft | 202 kts | 223° |
| 2026-05-04 21:08 | 51.06028 | 6.94361 | 3984 ft | 195 kts | 223° |
| 2026-05-04 21:09 | 51.05041 | 6.92948 | 3996 ft | 187 kts | 220° |
| 2026-05-04 21:09 | 51.03886 | 6.92035 | 3997 ft | 187 kts | 191° |
| 2026-05-04 21:09 | 51.02595 | 6.92146 | 3930 ft | 187 kts | 162° |
| 2026-05-04 21:09 | 51.01522 | 6.93248 | 3791 ft | 185 kts | 140° |
| 2026-05-04 21:10 | 51.00572 | 6.94646 | 3541 ft | 184 kts | 139° |
| 2026-05-04 21:10 | 50.99637 | 6.96020 | 3297 ft | 183 kts | 139° |
| 2026-05-04 21:10 | 50.98704 | 6.97385 | 3054 ft | 182 kts | 139° |
| 2026-05-04 21:10 | 50.97773 | 6.98747 | 2815 ft | 182 kts | 139° |
| 2026-05-04 21:11 | 50.96844 | 7.00101 | 2568 ft | 180 kts | 139° |
| 2026-05-04 21:11 | 50.95916 | 7.01455 | 2334 ft | 178 kts | 139° |
| 2026-05-04 21:11 | 50.95016 | 7.02768 | 2096 ft | 171 kts | 138° |
| 2026-05-04 21:11 | 50.94182 | 7.03983 | 1891 ft | 154 kts | 138° |
| 2026-05-04 21:12 | 50.93424 | 7.05086 | 1685 ft | 145 kts | 138° |
| 2026-05-04 21:12 | 50.92692 | 7.06151 | 1499 ft | 142 kts | 138° |
| 2026-05-04 21:12 | 50.91966 | 7.07191 | 1305 ft | 140 kts | 137° |
| 2026-05-04 21:12 | 50.91260 | 7.08237 | 1108 ft | 139 kts | 137° |
| 2026-05-04 21:13 | 50.90545 | 7.09283 | 932 ft | 140 kts | 138° |
| 2026-05-04 21:13 | 50.89824 | 7.10336 | 763 ft | 139 kts | 138° |
| 2026-05-04 21:13 | 50.89108 | 7.11375 | 570 ft | 138 kts | 138° |
| 2026-05-04 21:13 | 50.88632 | 7.12053 | 443 ft | 137 kts | 137° |
| 2026-05-04 21:14 | 50.87714 | 7.13388 | 241 ft | 130 kts | 137° |
| 2026-05-04 21:14 | 50.87321 | 7.13961 | 242 ft | 88 kts | 137° |
| 2026-05-04 21:14 | 50.87047 | 7.14357 | 254 ft | 39 kts | 137° |
| 2026-05-04 21:14 | 50.86913 | 7.14540 | 260 ft | 13 kts | 160° |
| 2026-05-04 21:15 | 50.86873 | 7.14467 | 260 ft | 10 kts | 275° |
| 2026-05-04 21:15 | 50.86888 | 7.14314 | 258 ft | 16 kts | 278° |
| 2026-05-04 21:15 | 50.86916 | 7.14121 | 255 ft | 19 kts | 295° |
| 2026-05-04 21:15 | 50.87018 | 7.13943 | 246 ft | 26 kts | 317° |
| 2026-05-04 21:16 | 50.87143 | 7.13761 | 240 ft | 26 kts | 317° |
| 2026-05-04 21:16 | 50.87289 | 7.13550 | 235 ft | 30 kts | 316° |
| 2026-05-04 21:16 | 50.87431 | 7.13345 | 233 ft | 27 kts | 318° |
| 2026-05-04 21:16 | 50.87561 | 7.13156 | 233 ft | 24 kts | 317° |
| 2026-05-04 21:17 | 50.87689 | 7.12972 | 233 ft | 26 kts | 318° |
| 2026-05-04 21:17 | 50.87782 | 7.12834 | 232 ft | 13 kts | 310° |
| 2026-05-04 21:17 | 50.87787 | 7.12703 | 232 ft | 11 kts | 280° |
| 2026-05-04 21:17 | 50.87832 | 7.12617 | 232 ft | 9 kts | 321° |
| 2026-05-04 21:18 | 50.87859 | 7.12532 | 232 ft | 8 kts | 288° |
| 2026-05-04 21:18 | 50.87871 | 7.12474 | 232 ft | 1 kts | 288° |
| 2026-05-04 21:18 | 50.87873 | 7.12464 | 232 ft | 1 kts | 288° |
| 2026-05-04 21:18 | 50.87873 | 7.12462 | 232 ft | 0 kts | 288° |
| 2026-05-04 21:19 | 50.87874 | 7.12460 | 232 ft | 1 kts | 288° |
| 2026-05-04 21:19 | 50.87875 | 7.12454 | 232 ft | 0 kts | 288° |